Impacts TAF Board
For situational awareness. Not to be used for flight planning purposes.
IDs:

KDHN - Dothan Rgnl, AL, US

Issued at 2322 UTC 22 Oct 2018
Updated at 0241 UTC 23 Oct 2018
Potential Impact None Slight Moderate High
Time<<23/15Z 23/16Z 23/17Z 23/18Z 23/19Z 23/20Z 23/21Z 23/22Z 23/23Z 24/00Z 24/01Z 24/02Z 24/03Z>>
Type PRVL PRVL PRVL PRVL PRVL PRVL PRVL PRVL PRVL
VIS >6 >6 >6 >6 >6 >6 >6 >6 >6
CIG 250 250 250 250 250 250 250 250 250
Cover BKN BKN BKN BKN BKN BKN BKN BKN BKN
FltCat VFR VFR VFR VFR VFR VFR VFR VFR VFR
WX -- -- -- -- -- -- -- -- --
WDir 60 60 60 60 60 60 60 60 60
WSpd 4 4 4 4 4 4 4 4 4
WGst -- -- -- -- -- -- -- -- --
Raw TAF
KDHN 222322Z 2300/2324 06004KT P6SM BKN250

METAR Board
Radar Display
Forecast Discussion
For situational awareness. Not to be used for flight planning purposes.